sensor_id;sensor_type;location;lat;lon;timestamp;P1;durP1;ratioP1;P2;durP2;ratioP2
83747;SDS011;73737;52.364;17.120;2023-11-21T00:00:42;52.70;;;21.60;;
83747;SDS011;73737;52.364;17.120;2023-11-21T00:03:39;48.20;;;22.00;;
83747;SDS011;73737;52.364;17.120;2023-11-21T00:06:08;50.30;;;21.60;;
83747;SDS011;73737;52.364;17.120;2023-11-21T00:08:37;42.80;;;18.60;;
83747;SDS011;73737;52.364;17.120;2023-11-21T00:11:09;40.70;;;17.10;;
83747;SDS011;73737;52.364;17.120;2023-11-21T00:13:40;40.90;;;18.60;;
83747;SDS011;73737;52.364;17.120;2023-11-21T00:16:09;39.10;;;18.40;;
83747;SDS011;73737;52.364;17.120;2023-11-21T00:18:37;43.00;;;20.40;;
83747;SDS011;73737;52.364;17.120;2023-11-21T00:21:06;43.70;;;19.80;;
83747;SDS011;73737;52.364;17.120;2023-11-21T00:23:36;42.30;;;17.80;;
83747;SDS011;73737;52.364;17.120;2023-11-21T00:26:04;39.50;;;17.70;;
83747;SDS011;73737;52.364;17.120;2023-11-21T00:28:33;37.30;;;19.90;;
83747;SDS011;73737;52.364;17.120;2023-11-21T00:31:03;46.80;;;19.50;;
83747;SDS011;73737;52.364;17.120;2023-11-21T00:33:32;41.90;;;18.80;;
83747;SDS011;73737;52.364;17.120;2023-11-21T00:36:01;39.90;;;18.70;;
83747;SDS011;73737;52.364;17.120;2023-11-21T00:38:30;38.50;;;18.40;;
83747;SDS011;73737;52.364;17.120;2023-11-21T00:41:00;36.90;;;16.80;;
83747;SDS011;73737;52.364;17.120;2023-11-21T00:43:30;46.70;;;19.90;;
83747;SDS011;73737;52.364;17.120;2023-11-21T00:46:06;41.40;;;17.40;;
83747;SDS011;73737;52.364;17.120;2023-11-21T00:48:37;47.60;;;20.60;;
83747;SDS011;73737;52.364;17.120;2023-11-21T00:51:05;37.50;;;17.70;;
83747;SDS011;73737;52.364;17.120;2023-11-21T00:53:34;41.20;;;18.30;;
83747;SDS011;73737;52.364;17.120;2023-11-21T00:56:02;47.20;;;20.70;;
83747;SDS011;73737;52.364;17.120;2023-11-21T00:58:31;53.20;;;22.70;;
83747;SDS011;73737;52.364;17.120;2023-11-21T01:00:59;49.20;;;23.60;;
83747;SDS011;73737;52.364;17.120;2023-11-21T01:03:28;56.90;;;25.00;;
83747;SDS011;73737;52.364;17.120;2023-11-21T01:05:56;51.20;;;23.80;;
83747;SDS011;73737;52.364;17.120;2023-11-21T01:08:24;57.10;;;22.80;;
83747;SDS011;73737;52.364;17.120;2023-11-21T01:10:53;56.40;;;23.80;;
83747;SDS011;73737;52.364;17.120;2023-11-21T01:13:21;58.70;;;23.50;;
83747;SDS011;73737;52.364;17.120;2023-11-21T01:15:50;62.20;;;26.20;;
83747;SDS011;73737;52.364;17.120;2023-11-21T01:18:18;63.20;;;26.50;;
83747;SDS011;73737;52.364;17.120;2023-11-21T01:20:51;64.80;;;26.10;;
83747;SDS011;73737;52.364;17.120;2023-11-21T01:23:21;58.70;;;25.10;;
83747;SDS011;73737;52.364;17.120;2023-11-21T01:25:51;51.50;;;21.10;;
83747;SDS011;73737;52.364;17.120;2023-11-21T01:28:19;61.50;;;24.70;;
83747;SDS011;73737;52.364;17.120;2023-11-21T01:30:48;62.40;;;23.30;;
83747;SDS011;73737;52.364;17.120;2023-11-21T01:33:17;61.50;;;27.50;;
83747;SDS011;73737;52.364;17.120;2023-11-21T01:35:46;62.40;;;26.50;;
83747;SDS011;73737;52.364;17.120;2023-11-21T01:38:18;65.00;;;25.50;;
83747;SDS011;73737;52.364;17.120;2023-11-21T01:40:49;52.90;;;23.20;;
83747;SDS011;73737;52.364;17.120;2023-11-21T01:43:19;54.60;;;24.00;;
83747;SDS011;73737;52.364;17.120;2023-11-21T01:45:49;57.20;;;24.10;;
83747;SDS011;73737;52.364;17.120;2023-11-21T01:48:22;60.10;;;24.30;;
83747;SDS011;73737;52.364;17.120;2023-11-21T01:50:51;68.70;;;27.60;;
83747;SDS011;73737;52.364;17.120;2023-11-21T01:53:24;60.10;;;28.50;;
83747;SDS011;73737;52.364;17.120;2023-11-21T01:55:56;64.40;;;25.90;;
83747;SDS011;73737;52.364;17.120;2023-11-21T01:58:28;64.00;;;24.70;;
83747;SDS011;73737;52.364;17.120;2023-11-21T02:00:58;54.00;;;24.70;;
83747;SDS011;73737;52.364;17.120;2023-11-21T02:03:26;66.10;;;26.40;;
83747;SDS011;73737;52.364;17.120;2023-11-21T02:05:55;58.10;;;26.10;;
83747;SDS011;73737;52.364;17.120;2023-11-21T02:08:23;65.30;;;26.80;;
83747;SDS011;73737;52.364;17.120;2023-11-21T02:10:53;63.70;;;25.00;;
83747;SDS011;73737;52.364;17.120;2023-11-21T02:13:29;57.10;;;25.20;;
83747;SDS011;73737;52.364;17.120;2023-11-21T02:16:44;60.50;;;27.10;;
83747;SDS011;73737;52.364;17.120;2023-11-21T02:19:17;56.40;;;25.00;;
83747;SDS011;73737;52.364;17.120;2023-11-21T02:21:54;54.90;;;23.30;;
83747;SDS011;73737;52.364;17.120;2023-11-21T02:24:26;69.00;;;25.80;;
83747;SDS011;73737;52.364;17.120;2023-11-21T02:26:55;60.30;;;24.90;;
83747;SDS011;73737;52.364;17.120;2023-11-21T02:29:24;65.00;;;25.40;;
83747;SDS011;73737;52.364;17.120;2023-11-21T02:31:58;53.40;;;21.80;;
83747;SDS011;73737;52.364;17.120;2023-11-21T02:34:31;49.70;;;21.30;;
83747;SDS011;73737;52.364;17.120;2023-11-21T02:37:01;58.50;;;23.60;;
83747;SDS011;73737;52.364;17.120;2023-11-21T02:39:29;65.40;;;26.20;;
83747;SDS011;73737;52.364;17.120;2023-11-21T02:41:59;55.30;;;24.40;;
83747;SDS011;73737;52.364;17.120;2023-11-21T02:44:27;60.00;;;24.40;;
83747;SDS011;73737;52.364;17.120;2023-11-21T02:46:56;60.70;;;23.90;;
83747;SDS011;73737;52.364;17.120;2023-11-21T02:49:25;48.20;;;21.10;;
83747;SDS011;73737;52.364;17.120;2023-11-21T02:51:59;49.20;;;22.10;;
83747;SDS011;73737;52.364;17.120;2023-11-21T02:54:28;49.50;;;20.90;;
83747;SDS011;73737;52.364;17.120;2023-11-21T02:57:06;48.10;;;19.70;;
83747;SDS011;73737;52.364;17.120;2023-11-21T02:59:38;53.00;;;22.10;;
83747;SDS011;73737;52.364;17.120;2023-11-21T03:02:09;42.70;;;20.80;;
83747;SDS011;73737;52.364;17.120;2023-11-21T03:04:37;46.70;;;20.70;;
83747;SDS011;73737;52.364;17.120;2023-11-21T03:07:06;21.60;;;8.40;;
83747;SDS011;73737;52.364;17.120;2023-11-21T03:09:34;42.40;;;19.10;;
83747;SDS011;73737;52.364;17.120;2023-11-21T03:12:03;45.40;;;20.50;;
83747;SDS011;73737;52.364;17.120;2023-11-21T03:14:32;45.70;;;19.10;;
83747;SDS011;73737;52.364;17.120;2023-11-21T03:17:04;40.70;;;18.90;;
83747;SDS011;73737;52.364;17.120;2023-11-21T03:19:37;46.90;;;19.50;;
83747;SDS011;73737;52.364;17.120;2023-11-21T03:22:07;45.60;;;20.30;;
83747;SDS011;73737;52.364;17.120;2023-11-21T03:24:36;45.20;;;19.50;;
83747;SDS011;73737;52.364;17.120;2023-11-21T03:27:06;42.20;;;17.70;;
83747;SDS011;73737;52.364;17.120;2023-11-21T03:29:34;31.70;;;15.40;;
83747;SDS011;73737;52.364;17.120;2023-11-21T03:32:03;36.50;;;15.60;;
83747;SDS011;73737;52.364;17.120;2023-11-21T03:34:32;41.20;;;18.40;;
83747;SDS011;73737;52.364;17.120;2023-11-21T03:37:00;42.00;;;20.10;;
83747;SDS011;73737;52.364;17.120;2023-11-21T03:39:31;44.20;;;19.60;;
83747;SDS011;73737;52.364;17.120;2023-11-21T03:41:59;41.10;;;17.30;;
83747;SDS011;73737;52.364;17.120;2023-11-21T03:44:31;40.60;;;17.70;;
83747;SDS011;73737;52.364;17.120;2023-11-21T03:46:59;36.40;;;16.50;;
83747;SDS011;73737;52.364;17.120;2023-11-21T03:49:28;33.80;;;17.30;;
83747;SDS011;73737;52.364;17.120;2023-11-21T03:51:57;38.30;;;16.80;;
83747;SDS011;73737;52.364;17.120;2023-11-21T03:54:25;38.70;;;16.80;;
83747;SDS011;73737;52.364;17.120;2023-11-21T03:56:53;37.20;;;15.90;;
83747;SDS011;73737;52.364;17.120;2023-11-21T03:59:22;33.20;;;14.70;;
83747;SDS011;73737;52.364;17.120;2023-11-21T04:01:52;34.30;;;15.80;;
83747;SDS011;73737;52.364;17.120;2023-11-21T04:04:24;35.50;;;16.20;;
83747;SDS011;73737;52.364;17.120;2023-11-21T04:06:52;41.30;;;16.60;;
83747;SDS011;73737;52.364;17.120;2023-11-21T04:09:23;35.30;;;17.00;;
83747;SDS011;73737;52.364;17.120;2023-11-21T04:11:53;36.20;;;15.80;;
83747;SDS011;73737;52.364;17.120;2023-11-21T04:14:21;33.80;;;16.50;;
83747;SDS011;73737;52.364;17.120;2023-11-21T04:16:50;33.10;;;15.40;;
83747;SDS011;73737;52.364;17.120;2023-11-21T04:19:18;28.70;;;13.60;;
83747;SDS011;73737;52.364;17.120;2023-11-21T04:21:47;34.10;;;15.00;;
83747;SDS011;73737;52.364;17.120;2023-11-21T04:24:15;31.20;;;15.60;;
83747;SDS011;73737;52.364;17.120;2023-11-21T04:26:44;33.70;;;15.00;;
83747;SDS011;73737;52.364;17.120;2023-11-21T04:29:12;27.60;;;12.10;;
83747;SDS011;73737;52.364;17.120;2023-11-21T04:31:41;28.00;;;13.80;;
83747;SDS011;73737;52.364;17.120;2023-11-21T04:34:09;28.00;;;12.10;;
83747;SDS011;73737;52.364;17.120;2023-11-21T04:36:39;32.10;;;16.00;;
83747;SDS011;73737;52.364;17.120;2023-11-21T04:39:08;30.40;;;15.30;;
83747;SDS011;73737;52.364;17.120;2023-11-21T04:41:37;23.20;;;12.00;;
83747;SDS011;73737;52.364;17.120;2023-11-21T04:44:07;22.40;;;11.70;;
83747;SDS011;73737;52.364;17.120;2023-11-21T04:46:35;25.80;;;12.50;;
83747;SDS011;73737;52.364;17.120;2023-11-21T04:49:04;18.20;;;10.50;;
83747;SDS011;73737;52.364;17.120;2023-11-21T04:51:32;15.80;;;10.40;;
83747;SDS011;73737;52.364;17.120;2023-11-21T04:54:00;19.20;;;10.50;;
83747;SDS011;73737;52.364;17.120;2023-11-21T04:56:29;19.20;;;9.40;;
83747;SDS011;73737;52.364;17.120;2023-11-21T04:58:57;22.70;;;12.50;;
83747;SDS011;73737;52.364;17.120;2023-11-21T05:01:25;24.40;;;12.60;;
83747;SDS011;73737;52.364;17.120;2023-11-21T05:03:54;20.50;;;10.60;;
83747;SDS011;73737;52.364;17.120;2023-11-21T05:06:23;13.80;;;8.30;;
83747;SDS011;73737;52.364;17.120;2023-11-21T05:08:52;17.60;;;10.50;;
83747;SDS011;73737;52.364;17.120;2023-11-21T05:11:27;19.10;;;10.90;;
83747;SDS011;73737;52.364;17.120;2023-11-21T05:13:56;21.10;;;11.20;;
83747;SDS011;73737;52.364;17.120;2023-11-21T05:16:26;15.00;;;8.50;;
83747;SDS011;73737;52.364;17.120;2023-11-21T05:18:58;14.50;;;9.40;;
83747;SDS011;73737;52.364;17.120;2023-11-21T05:21:28;13.50;;;8.50;;
83747;SDS011;73737;52.364;17.120;2023-11-21T05:24:00;11.60;;;8.00;;
83747;SDS011;73737;52.364;17.120;2023-11-21T05:26:29;12.60;;;7.60;;
83747;SDS011;73737;52.364;17.120;2023-11-21T05:28:57;12.50;;;7.30;;
83747;SDS011;73737;52.364;17.120;2023-11-21T05:31:25;16.60;;;8.50;;
83747;SDS011;73737;52.364;17.120;2023-11-21T05:33:54;14.20;;;8.00;;
83747;SDS011;73737;52.364;17.120;2023-11-21T05:36:23;12.70;;;7.70;;
83747;SDS011;73737;52.364;17.120;2023-11-21T05:38:52;12.50;;;7.50;;
83747;SDS011;73737;52.364;17.120;2023-11-21T05:41:20;12.70;;;8.20;;
83747;SDS011;73737;52.364;17.120;2023-11-21T05:43:49;13.10;;;7.70;;
83747;SDS011;73737;52.364;17.120;2023-11-21T05:46:17;17.60;;;9.50;;
83747;SDS011;73737;52.364;17.120;2023-11-21T05:48:46;16.80;;;8.50;;
83747;SDS011;73737;52.364;17.120;2023-11-21T05:51:14;20.10;;;9.70;;
83747;SDS011;73737;52.364;17.120;2023-11-21T05:53:43;16.20;;;8.80;;
83747;SDS011;73737;52.364;17.120;2023-11-21T05:56:11;18.50;;;10.40;;
83747;SDS011;73737;52.364;17.120;2023-11-21T05:58:39;20.70;;;11.20;;
83747;SDS011;73737;52.364;17.120;2023-11-21T06:01:08;25.20;;;12.90;;
83747;SDS011;73737;52.364;17.120;2023-11-21T06:03:37;22.20;;;11.40;;
83747;SDS011;73737;52.364;17.120;2023-11-21T06:06:06;26.50;;;11.50;;
83747;SDS011;73737;52.364;17.120;2023-11-21T06:08:34;14.60;;;8.80;;
83747;SDS011;73737;52.364;17.120;2023-11-21T06:11:03;21.30;;;10.10;;
83747;SDS011;73737;52.364;17.120;2023-11-21T06:13:31;22.70;;;10.50;;
83747;SDS011;73737;52.364;17.120;2023-11-21T06:15:59;22.50;;;11.90;;
83747;SDS011;73737;52.364;17.120;2023-11-21T06:18:28;20.30;;;10.80;;
83747;SDS011;73737;52.364;17.120;2023-11-21T06:20:57;20.80;;;10.90;;
83747;SDS011;73737;52.364;17.120;2023-11-21T06:23:26;21.00;;;11.30;;
83747;SDS011;73737;52.364;17.120;2023-11-21T06:25:54;20.70;;;10.30;;
83747;SDS011;73737;52.364;17.120;2023-11-21T06:28:23;23.10;;;11.90;;
83747;SDS011;73737;52.364;17.120;2023-11-21T06:30:51;26.60;;;12.10;;
83747;SDS011;73737;52.364;17.120;2023-11-21T06:33:21;17.00;;;7.50;;
83747;SDS011;73737;52.364;17.120;2023-11-21T06:35:49;26.10;;;13.90;;
83747;SDS011;73737;52.364;17.120;2023-11-21T06:38:19;23.20;;;11.80;;
83747;SDS011;73737;52.364;17.120;2023-11-21T06:40:47;19.20;;;9.60;;
83747;SDS011;73737;52.364;17.120;2023-11-21T06:43:16;23.40;;;10.50;;
83747;SDS011;73737;52.364;17.120;2023-11-21T06:45:45;21.20;;;10.80;;
83747;SDS011;73737;52.364;17.120;2023-11-21T06:48:13;22.30;;;12.10;;
83747;SDS011;73737;52.364;17.120;2023-11-21T06:50:45;23.50;;;12.50;;
83747;SDS011;73737;52.364;17.120;2023-11-21T06:53:14;23.30;;;12.80;;
83747;SDS011;73737;52.364;17.120;2023-11-21T06:55:42;22.10;;;12.10;;
83747;SDS011;73737;52.364;17.120;2023-11-21T06:58:11;20.70;;;11.10;;
83747;SDS011;73737;52.364;17.120;2023-11-21T07:00:39;18.50;;;10.70;;
83747;SDS011;73737;52.364;17.120;2023-11-21T07:03:11;18.00;;;11.00;;
83747;SDS011;73737;52.364;17.120;2023-11-21T07:05:39;22.90;;;13.50;;
83747;SDS011;73737;52.364;17.120;2023-11-21T07:08:08;19.80;;;11.30;;
83747;SDS011;73737;52.364;17.120;2023-11-21T07:10:36;28.80;;;14.70;;
83747;SDS011;73737;52.364;17.120;2023-11-21T07:13:06;29.00;;;14.80;;
83747;SDS011;73737;52.364;17.120;2023-11-21T07:15:34;23.80;;;11.50;;
83747;SDS011;73737;52.364;17.120;2023-11-21T07:18:03;23.00;;;12.60;;
83747;SDS011;73737;52.364;17.120;2023-11-21T07:20:31;23.70;;;12.30;;
83747;SDS011;73737;52.364;17.120;2023-11-21T07:22:59;22.90;;;11.40;;
83747;SDS011;73737;52.364;17.120;2023-11-21T07:25:29;28.40;;;14.10;;
83747;SDS011;73737;52.364;17.120;2023-11-21T07:27:57;23.80;;;12.40;;
83747;SDS011;73737;52.364;17.120;2023-11-21T07:30:25;22.80;;;10.80;;
83747;SDS011;73737;52.364;17.120;2023-11-21T07:32:55;25.50;;;12.80;;
83747;SDS011;73737;52.364;17.120;2023-11-21T07:35:23;20.80;;;10.90;;
83747;SDS011;73737;52.364;17.120;2023-11-21T07:37:52;20.30;;;11.80;;
83747;SDS011;73737;52.364;17.120;2023-11-21T07:40:20;20.70;;;11.00;;
83747;SDS011;73737;52.364;17.120;2023-11-21T07:42:50;21.50;;;12.00;;
83747;SDS011;73737;52.364;17.120;2023-11-21T07:45:19;19.50;;;10.50;;
83747;SDS011;73737;52.364;17.120;2023-11-21T07:47:48;20.20;;;10.80;;
83747;SDS011;73737;52.364;17.120;2023-11-21T07:50:17;19.80;;;11.00;;
83747;SDS011;73737;52.364;17.120;2023-11-21T07:52:45;20.30;;;10.90;;
83747;SDS011;73737;52.364;17.120;2023-11-21T07:55:14;20.80;;;10.30;;
83747;SDS011;73737;52.364;17.120;2023-11-21T07:57:42;16.50;;;10.00;;
83747;SDS011;73737;52.364;17.120;2023-11-21T08:00:11;26.30;;;13.90;;
83747;SDS011;73737;52.364;17.120;2023-11-21T08:02:43;25.50;;;13.80;;
83747;SDS011;73737;52.364;17.120;2023-11-21T08:05:13;24.00;;;12.40;;
83747;SDS011;73737;52.364;17.120;2023-11-21T08:07:43;23.20;;;11.90;;
83747;SDS011;73737;52.364;17.120;2023-11-21T08:10:11;19.50;;;10.40;;
83747;SDS011;73737;52.364;17.120;2023-11-21T08:12:40;17.60;;;9.40;;
83747;SDS011;73737;52.364;17.120;2023-11-21T08:15:10;18.20;;;10.20;;
83747;SDS011;73737;52.364;17.120;2023-11-21T08:17:38;18.80;;;10.80;;
83747;SDS011;73737;52.364;17.120;2023-11-21T08:20:07;19.00;;;10.20;;
83747;SDS011;73737;52.364;17.120;2023-11-21T08:22:38;20.70;;;10.50;;
83747;SDS011;73737;52.364;17.120;2023-11-21T08:25:08;15.40;;;9.20;;
83747;SDS011;73737;52.364;17.120;2023-11-21T08:27:37;20.20;;;11.40;;
83747;SDS011;73737;52.364;17.120;2023-11-21T08:30:05;19.60;;;11.40;;
83747;SDS011;73737;52.364;17.120;2023-11-21T08:32:35;22.00;;;13.20;;
83747;SDS011;73737;52.364;17.120;2023-11-21T08:35:03;19.60;;;11.90;;
83747;SDS011;73737;52.364;17.120;2023-11-21T08:37:33;18.00;;;10.70;;
83747;SDS011;73737;52.364;17.120;2023-11-21T08:40:05;16.80;;;10.90;;
83747;SDS011;73737;52.364;17.120;2023-11-21T08:42:44;18.30;;;11.60;;
83747;SDS011;73737;52.364;17.120;2023-11-21T08:45:16;19.00;;;12.10;;
83747;SDS011;73737;52.364;17.120;2023-11-21T08:47:45;18.80;;;10.50;;
83747;SDS011;73737;52.364;17.120;2023-11-21T08:50:13;17.20;;;9.60;;
83747;SDS011;73737;52.364;17.120;2023-11-21T08:52:44;17.10;;;9.40;;
83747;SDS011;73737;52.364;17.120;2023-11-21T08:55:14;18.10;;;10.20;;
83747;SDS011;73737;52.364;17.120;2023-11-21T08:57:43;14.30;;;9.30;;
83747;SDS011;73737;52.364;17.120;2023-11-21T09:00:14;17.90;;;10.80;;
83747;SDS011;73737;52.364;17.120;2023-11-21T09:02:45;19.00;;;10.50;;
83747;SDS011;73737;52.364;17.120;2023-11-21T09:05:14;22.90;;;11.50;;
83747;SDS011;73737;52.364;17.120;2023-11-21T09:07:44;19.20;;;11.40;;
83747;SDS011;73737;52.364;17.120;2023-11-21T09:10:14;19.80;;;10.80;;
83747;SDS011;73737;52.364;17.120;2023-11-21T09:12:42;21.40;;;13.10;;
83747;SDS011;73737;52.364;17.120;2023-11-21T09:15:11;22.30;;;12.80;;
83747;SDS011;73737;52.364;17.120;2023-11-21T09:17:39;23.90;;;14.00;;
83747;SDS011;73737;52.364;17.120;2023-11-21T09:20:08;25.30;;;14.00;;
83747;SDS011;73737;52.364;17.120;2023-11-21T09:22:38;24.90;;;13.60;;
83747;SDS011;73737;52.364;17.120;2023-11-21T09:25:06;22.10;;;12.60;;
83747;SDS011;73737;52.364;17.120;2023-11-21T09:27:36;22.40;;;13.60;;
83747;SDS011;73737;52.364;17.120;2023-11-21T09:30:05;20.50;;;11.60;;
83747;SDS011;73737;52.364;17.120;2023-11-21T09:32:37;23.40;;;13.00;;
83747;SDS011;73737;52.364;17.120;2023-11-21T09:35:06;25.10;;;14.60;;
83747;SDS011;73737;52.364;17.120;2023-11-21T09:37:37;24.70;;;13.50;;
83747;SDS011;73737;52.364;17.120;2023-11-21T09:40:06;25.70;;;14.40;;
83747;SDS011;73737;52.364;17.120;2023-11-21T09:42:45;28.30;;;14.20;;
83747;SDS011;73737;52.364;17.120;2023-11-21T09:45:27;29.40;;;17.00;;
83747;SDS011;73737;52.364;17.120;2023-11-21T09:47:57;21.20;;;13.70;;
83747;SDS011;73737;52.364;17.120;2023-11-21T09:50:25;25.90;;;15.20;;
83747;SDS011;73737;52.364;17.120;2023-11-21T09:52:58;24.60;;;14.20;;
83747;SDS011;73737;52.364;17.120;2023-11-21T09:55:29;22.80;;;12.60;;
83747;SDS011;73737;52.364;17.120;2023-11-21T09:57:58;23.00;;;12.50;;
83747;SDS011;73737;52.364;17.120;2023-11-21T10:00:26;18.00;;;10.80;;
83747;SDS011;73737;52.364;17.120;2023-11-21T10:02:55;23.50;;;13.70;;
83747;SDS011;73737;52.364;17.120;2023-11-21T10:05:26;17.50;;;10.70;;
83747;SDS011;73737;52.364;17.120;2023-11-21T10:07:55;23.50;;;13.10;;
83747;SDS011;73737;52.364;17.120;2023-11-21T10:10:25;19.00;;;12.10;;
83747;SDS011;73737;52.364;17.120;2023-11-21T10:12:54;23.60;;;13.20;;
83747;SDS011;73737;52.364;17.120;2023-11-21T10:15:24;20.30;;;11.90;;
83747;SDS011;73737;52.364;17.120;2023-11-21T10:17:56;18.50;;;11.70;;
83747;SDS011;73737;52.364;17.120;2023-11-21T10:20:24;22.00;;;12.60;;
83747;SDS011;73737;52.364;17.120;2023-11-21T10:22:52;19.30;;;12.40;;
83747;SDS011;73737;52.364;17.120;2023-11-21T10:25:21;21.10;;;12.80;;
83747;SDS011;73737;52.364;17.120;2023-11-21T10:27:49;22.50;;;10.80;;
83747;SDS011;73737;52.364;17.120;2023-11-21T10:30:21;25.50;;;14.60;;
83747;SDS011;73737;52.364;17.120;2023-11-21T10:32:49;26.60;;;16.50;;
83747;SDS011;73737;52.364;17.120;2023-11-21T10:35:17;25.30;;;14.90;;
83747;SDS011;73737;52.364;17.120;2023-11-21T10:37:46;26.60;;;14.40;;
83747;SDS011;73737;52.364;17.120;2023-11-21T10:40:28;26.00;;;15.50;;
83747;SDS011;73737;52.364;17.120;2023-11-21T10:43:05;25.30;;;13.40;;
83747;SDS011;73737;52.364;17.120;2023-11-21T10:45:35;21.20;;;12.70;;
83747;SDS011;73737;52.364;17.120;2023-11-21T10:48:07;24.30;;;13.90;;
83747;SDS011;73737;52.364;17.120;2023-11-21T10:50:36;17.50;;;11.10;;
83747;SDS011;73737;52.364;17.120;2023-11-21T10:53:05;22.70;;;13.20;;
83747;SDS011;73737;52.364;17.120;2023-11-21T10:55:34;21.80;;;13.00;;
83747;SDS011;73737;52.364;17.120;2023-11-21T10:58:03;23.90;;;13.20;;
83747;SDS011;73737;52.364;17.120;2023-11-21T11:00:33;24.30;;;13.60;;
83747;SDS011;73737;52.364;17.120;2023-11-21T11:03:01;16.10;;;9.20;;
83747;SDS011;73737;52.364;17.120;2023-11-21T11:05:30;25.60;;;15.30;;
83747;SDS011;73737;52.364;17.120;2023-11-21T11:08:07;28.00;;;14.90;;
83747;SDS011;73737;52.364;17.120;2023-11-21T11:10:37;20.10;;;12.90;;
83747;SDS011;73737;52.364;17.120;2023-11-21T11:13:06;23.60;;;15.20;;
83747;SDS011;73737;52.364;17.120;2023-11-21T11:15:35;25.70;;;13.90;;
83747;SDS011;73737;52.364;17.120;2023-11-21T11:18:04;28.30;;;16.00;;
83747;SDS011;73737;52.364;17.120;2023-11-21T11:20:35;24.00;;;15.20;;
83747;SDS011;73737;52.364;17.120;2023-11-21T11:28:14;26.30;;;16.70;;
83747;SDS011;73737;52.364;17.120;2023-11-21T11:36:30;22.80;;;13.60;;
83747;SDS011;73737;52.364;17.120;2023-11-21T11:39:02;25.40;;;13.20;;
83747;SDS011;73737;52.364;17.120;2023-11-21T11:41:33;23.40;;;13.60;;
83747;SDS011;73737;52.364;17.120;2023-11-21T11:44:02;23.10;;;12.70;;
83747;SDS011;73737;52.364;17.120;2023-11-21T11:46:42;24.10;;;14.50;;
83747;SDS011;73737;52.364;17.120;2023-11-21T11:49:11;20.90;;;12.90;;
83747;SDS011;73737;52.364;17.120;2023-11-21T11:55:03;23.50;;;12.80;;
83747;SDS011;73737;52.364;17.120;2023-11-21T11:57:34;27.00;;;15.40;;
83747;SDS011;73737;52.364;17.120;2023-11-21T12:02:48;32.00;;;15.70;;
83747;SDS011;73737;52.364;17.120;2023-11-21T12:05:20;32.00;;;17.10;;
83747;SDS011;73737;52.364;17.120;2023-11-21T12:07:52;30.00;;;16.80;;
83747;SDS011;73737;52.364;17.120;2023-11-21T12:10:27;28.20;;;15.20;;
83747;SDS011;73737;52.364;17.120;2023-11-21T12:13:03;27.30;;;15.30;;
83747;SDS011;73737;52.364;17.120;2023-11-21T12:15:36;24.90;;;15.10;;
83747;SDS011;73737;52.364;17.120;2023-11-21T12:18:05;22.50;;;13.20;;
83747;SDS011;73737;52.364;17.120;2023-11-21T12:20:33;25.90;;;15.50;;
83747;SDS011;73737;52.364;17.120;2023-11-21T12:23:06;35.10;;;18.70;;
83747;SDS011;73737;52.364;17.120;2023-11-21T12:25:37;34.10;;;16.80;;
83747;SDS011;73737;52.364;17.120;2023-11-21T12:28:07;29.00;;;13.90;;
83747;SDS011;73737;52.364;17.120;2023-11-21T12:30:36;24.00;;;15.80;;
83747;SDS011;73737;52.364;17.120;2023-11-21T12:33:06;26.40;;;15.50;;
83747;SDS011;73737;52.364;17.120;2023-11-21T12:35:36;17.90;;;9.70;;
83747;SDS011;73737;52.364;17.120;2023-11-21T12:38:06;28.10;;;15.10;;
83747;SDS011;73737;52.364;17.120;2023-11-21T12:40:37;27.50;;;14.20;;
83747;SDS011;73737;52.364;17.120;2023-11-21T12:43:06;27.80;;;15.10;;
83747;SDS011;73737;52.364;17.120;2023-11-21T12:45:35;28.10;;;15.50;;
83747;SDS011;73737;52.364;17.120;2023-11-21T12:48:05;26.20;;;13.10;;
83747;SDS011;73737;52.364;17.120;2023-11-21T12:50:39;27.10;;;13.90;;
83747;SDS011;73737;52.364;17.120;2023-11-21T12:53:08;31.80;;;15.00;;
83747;SDS011;73737;52.364;17.120;2023-11-21T12:55:40;25.50;;;13.50;;
83747;SDS011;73737;52.364;17.120;2023-11-21T12:58:10;26.20;;;12.70;;
83747;SDS011;73737;52.364;17.120;2023-11-21T13:00:40;28.00;;;13.40;;
83747;SDS011;73737;52.364;17.120;2023-11-21T13:03:12;23.70;;;10.70;;
83747;SDS011;73737;52.364;17.120;2023-11-21T13:05:48;28.80;;;15.10;;
83747;SDS011;73737;52.364;17.120;2023-11-21T13:08:22;26.80;;;13.00;;
83747;SDS011;73737;52.364;17.120;2023-11-21T13:10:53;27.30;;;12.40;;
83747;SDS011;73737;52.364;17.120;2023-11-21T13:13:23;25.30;;;12.20;;
83747;SDS011;73737;52.364;17.120;2023-11-21T13:15:53;21.70;;;11.50;;
83747;SDS011;73737;52.364;17.120;2023-11-21T13:18:28;26.10;;;10.40;;
83747;SDS011;73737;52.364;17.120;2023-11-21T13:21:03;27.70;;;14.40;;
83747;SDS011;73737;52.364;17.120;2023-11-21T13:23:38;28.40;;;14.20;;
83747;SDS011;73737;52.364;17.120;2023-11-21T13:26:07;24.90;;;12.90;;
83747;SDS011;73737;52.364;17.120;2023-11-21T13:28:36;21.20;;;12.10;;
83747;SDS011;73737;52.364;17.120;2023-11-21T13:31:05;26.60;;;14.40;;
83747;SDS011;73737;52.364;17.120;2023-11-21T13:33:37;26.30;;;13.30;;
83747;SDS011;73737;52.364;17.120;2023-11-21T13:36:07;26.90;;;13.60;;
83747;SDS011;73737;52.364;17.120;2023-11-21T13:38:37;31.30;;;15.30;;
83747;SDS011;73737;52.364;17.120;2023-11-21T13:41:10;24.00;;;11.00;;
83747;SDS011;73737;52.364;17.120;2023-11-21T13:43:40;22.30;;;11.20;;
83747;SDS011;73737;52.364;17.120;2023-11-21T13:46:12;27.00;;;14.70;;
83747;SDS011;73737;52.364;17.120;2023-11-21T13:48:49;27.20;;;13.40;;
83747;SDS011;73737;52.364;17.120;2023-11-21T13:51:24;24.60;;;13.10;;
83747;SDS011;73737;52.364;17.120;2023-11-21T13:54:05;24.20;;;13.00;;
83747;SDS011;73737;52.364;17.120;2023-11-21T13:56:37;26.10;;;13.80;;
83747;SDS011;73737;52.364;17.120;2023-11-21T13:59:08;22.30;;;11.60;;
83747;SDS011;73737;52.364;17.120;2023-11-21T14:01:56;28.60;;;13.30;;
83747;SDS011;73737;52.364;17.120;2023-11-21T14:04:28;25.20;;;12.80;;
83747;SDS011;73737;52.364;17.120;2023-11-21T14:07:15;19.60;;;10.70;;
83747;SDS011;73737;52.364;17.120;2023-11-21T14:10:05;20.90;;;12.30;;
83747;SDS011;73737;52.364;17.120;2023-11-21T14:12:39;20.90;;;10.70;;
83747;SDS011;73737;52.364;17.120;2023-11-21T14:15:10;20.70;;;11.50;;
83747;SDS011;73737;52.364;17.120;2023-11-21T14:17:45;27.70;;;13.70;;
83747;SDS011;73737;52.364;17.120;2023-11-21T14:20:13;27.50;;;13.30;;
83747;SDS011;73737;52.364;17.120;2023-11-21T14:22:43;21.90;;;11.70;;
83747;SDS011;73737;52.364;17.120;2023-11-21T14:25:12;22.60;;;12.80;;
83747;SDS011;73737;52.364;17.120;2023-11-21T14:27:42;24.10;;;12.00;;
83747;SDS011;73737;52.364;17.120;2023-11-21T14:30:10;17.30;;;10.20;;
83747;SDS011;73737;52.364;17.120;2023-11-21T14:32:41;24.90;;;13.10;;
83747;SDS011;73737;52.364;17.120;2023-11-21T14:35:11;24.30;;;12.40;;
83747;SDS011;73737;52.364;17.120;2023-11-21T14:37:40;25.40;;;12.50;;
83747;SDS011;73737;52.364;17.120;2023-11-21T14:40:12;22.10;;;11.00;;
83747;SDS011;73737;52.364;17.120;2023-11-21T14:42:43;27.40;;;13.90;;
83747;SDS011;73737;52.364;17.120;2023-11-21T14:45:15;23.30;;;11.90;;